EZY212 LPFR-EGKK
Flight info
| Callsign | EZY212 |
|---|---|
| Flight time | N/A |
| Altitude | 38000 |
| Route | ELVAR DCT BARDI DCT ZMR N873 DELOG DCT ERCOZ DCT BADUR DCT FEJAC DCT JSY DCT REVTU/N0431F340 UP88 VASUX |
| Aircraft | A20N/M-SDE2E3FGHIRWXY/LB1 |
Departure
| Time | 2026-05-04 14:51 |
|---|---|
| Airport | Faro - Gago Coutinho International Airport (LPFR) |
Arrival
| Time | N/A |
|---|---|
| Airport | London Gatwick Airport (EGKK) |
| Time | Latitude | Longitude | Altitude | Speed | Heading |
|---|---|---|---|---|---|
| 2026-05-04 14:31 | 37.01864 | -7.96534 | 28 ft | 0 kts | 9° |
| 2026-05-04 14:40 | 37.01863 | -7.96535 | 28 ft | 2 kts | 3° |
| 2026-05-04 14:40 | 37.01860 | -7.96536 | 28 ft | 0 kts | 328° |
| 2026-05-04 14:40 | 37.01840 | -7.96528 | 28 ft | 10 kts | 3° |
| 2026-05-04 14:40 | 37.01826 | -7.96529 | 28 ft | 0 kts | 6° |
| 2026-05-04 14:41 | 37.01817 | -7.96531 | 28 ft | 3 kts | 7° |
| 2026-05-04 14:41 | 37.01801 | -7.96534 | 28 ft | 1 kts | 24° |
| 2026-05-04 14:41 | 37.01793 | -7.96557 | 28 ft | 0 kts | 120° |
| 2026-05-04 14:44 | 37.01788 | -7.96541 | 28 ft | 6 kts | 110° |
| 2026-05-04 14:44 | 37.01773 | -7.96419 | 28 ft | 21 kts | 98° |
| 2026-05-04 14:45 | 37.01740 | -7.96219 | 27 ft | 25 kts | 100° |
| 2026-05-04 14:45 | 37.01720 | -7.96108 | 27 ft | 0 kts | 128° |
| 2026-05-04 14:45 | 37.01709 | -7.96092 | 27 ft | 7 kts | 135° |
| 2026-05-04 14:45 | 37.01643 | -7.96063 | 27 ft | 12 kts | 140° |
| 2026-05-04 14:46 | 37.01607 | -7.95939 | 27 ft | 16 kts | 100° |
| 2026-05-04 14:46 | 37.01598 | -7.95884 | 27 ft | 7 kts | 111° |
| 2026-05-04 14:46 | 37.01532 | -7.95856 | 26 ft | 14 kts | 178° |
| 2026-05-04 14:46 | 37.01439 | -7.95843 | 26 ft | 0 kts | 192° |
| 2026-05-04 14:47 | 37.01430 | -7.95845 | 26 ft | 3 kts | 192° |
| 2026-05-04 14:47 | 37.01430 | -7.95846 | 26 ft | 0 kts | 192° |
| 2026-05-04 14:49 | 37.01428 | -7.95846 | 26 ft | 1 kts | 192° |
| 2026-05-04 14:50 | 37.01406 | -7.95852 | 26 ft | 5 kts | 192° |
| 2026-05-04 14:50 | 37.01362 | -7.95872 | 26 ft | 8 kts | 217° |
| 2026-05-04 14:50 | 37.01350 | -7.95942 | 27 ft | 10 kts | 275° |
| 2026-05-04 14:50 | 37.01393 | -7.96270 | 28 ft | 72 kts | 280° |
| 2026-05-04 14:51 | 37.01521 | -7.97141 | 29 ft | 128 kts | 279° |
| 2026-05-04 14:51 | 37.01695 | -7.98351 | 411 ft | 140 kts | 279° |
| 2026-05-04 14:51 | 37.01885 | -7.99532 | 1152 ft | 136 kts | 279° |
| 2026-05-04 14:51 | 37.02047 | -8.00674 | 1851 ft | 135 kts | 281° |
| 2026-05-04 14:52 | 37.02226 | -8.01926 | 2247 ft | 159 kts | 283° |
| 2026-05-04 14:52 | 37.02431 | -8.03367 | 2780 ft | 177 kts | 282° |
| 2026-05-04 14:52 | 37.02659 | -8.04971 | 3268 ft | 199 kts | 282° |
| 2026-05-04 14:52 | 37.02914 | -8.06743 | 3920 ft | 210 kts | 282° |
| 2026-05-04 14:53 | 37.03173 | -8.08554 | 4851 ft | 213 kts | 282° |
| 2026-05-04 14:53 | 37.03541 | -8.10350 | 5717 ft | 213 kts | 298° |
| 2026-05-04 14:53 | 37.04484 | -8.11768 | 6545 ft | 216 kts | 326° |
| 2026-05-04 14:53 | 37.05890 | -8.12433 | 7365 ft | 222 kts | 352° |
| 2026-05-04 14:54 | 37.07464 | -8.12261 | 8082 ft | 236 kts | 6° |
| 2026-05-04 14:54 | 37.09172 | -8.11905 | 8542 ft | 261 kts | 6° |
| 2026-05-04 14:54 | 37.11043 | -8.11518 | 9000 ft | 283 kts | 6° |
| 2026-05-04 14:54 | 37.13012 | -8.11111 | 9825 ft | 290 kts | 7° |
| 2026-05-04 14:55 | 37.14978 | -8.10422 | 10452 ft | 307 kts | 14° |
| 2026-05-04 14:55 | 37.17083 | -8.09553 | 10779 ft | 330 kts | 15° |
| 2026-05-04 14:55 | 37.19322 | -8.08602 | 11197 ft | 347 kts | 15° |
| 2026-05-04 14:55 | 37.21626 | -8.07621 | 11988 ft | 351 kts | 15° |
| 2026-05-04 14:56 | 37.23963 | -8.06636 | 12766 ft | 356 kts | 14° |
| 2026-05-04 14:56 | 37.26334 | -8.05645 | 13557 ft | 360 kts | 14° |
| 2026-05-04 14:56 | 37.28734 | -8.04649 | 14293 ft | 365 kts | 14° |
| 2026-05-04 14:56 | 37.31126 | -8.03658 | 14986 ft | 369 kts | 14° |
| 2026-05-04 14:57 | 37.33582 | -8.02641 | 15689 ft | 372 kts | 13° |
| 2026-05-04 14:57 | 37.36052 | -8.01615 | 16421 ft | 376 kts | 13° |
| 2026-05-04 14:57 | 37.38550 | -8.00578 | 17075 ft | 380 kts | 13° |
| 2026-05-04 14:57 | 37.41072 | -7.99531 | 17753 ft | 384 kts | 13° |
| 2026-05-04 14:58 | 37.43617 | -7.98472 | 18396 ft | 388 kts | 13° |
| 2026-05-04 14:58 | 37.46189 | -7.97402 | 18992 ft | 391 kts | 13° |
| 2026-05-04 14:58 | 37.48787 | -7.96319 | 19577 ft | 395 kts | 13° |
| 2026-05-04 14:58 | 37.51410 | -7.95225 | 20141 ft | 398 kts | 13° |
| 2026-05-04 14:59 | 37.54052 | -7.94123 | 20727 ft | 401 kts | 13° |
| 2026-05-04 14:59 | 37.56718 | -7.93010 | 21300 ft | 405 kts | 13° |
| 2026-05-04 14:59 | 37.62079 | -7.90770 | 22388 ft | 412 kts | 13° |
| 2026-05-04 15:00 | 37.64816 | -7.89625 | 22939 ft | 416 kts | 13° |
| 2026-05-04 15:00 | 37.67575 | -7.88470 | 23474 ft | 419 kts | 13° |
| 2026-05-04 15:00 | 37.70359 | -7.87303 | 23941 ft | 423 kts | 12° |
| 2026-05-04 15:01 | 37.75979 | -7.84945 | 24868 ft | 428 kts | 12° |
| 2026-05-04 15:01 | 37.78819 | -7.83752 | 25315 ft | 431 kts | 12° |
| 2026-05-04 15:01 | 37.81644 | -7.82565 | 25736 ft | 434 kts | 12° |
| 2026-05-04 15:01 | 37.84522 | -7.81355 | 26170 ft | 437 kts | 12° |
| 2026-05-04 15:02 | 37.87429 | -7.80131 | 26589 ft | 440 kts | 12° |
| 2026-05-04 15:02 | 37.90340 | -7.78904 | 27007 ft | 443 kts | 12° |
| 2026-05-04 15:02 | 37.93273 | -7.77668 | 27394 ft | 446 kts | 12° |
| 2026-05-04 15:02 | 37.96227 | -7.76421 | 27799 ft | 448 kts | 12° |
| 2026-05-04 15:03 | 37.99192 | -7.75169 | 28165 ft | 451 kts | 12° |
| 2026-05-04 15:03 | 38.02180 | -7.73905 | 28516 ft | 453 kts | 12° |
| 2026-05-04 15:03 | 38.05186 | -7.72633 | 28881 ft | 456 kts | 12° |
| 2026-05-04 15:03 | 38.08165 | -7.71371 | 29217 ft | 459 kts | 12° |
| 2026-05-04 15:04 | 38.11196 | -7.70086 | 29541 ft | 461 kts | 12° |
| 2026-05-04 15:04 | 38.14251 | -7.68790 | 29878 ft | 463 kts | 12° |
| 2026-05-04 15:04 | 38.17315 | -7.67489 | 30182 ft | 466 kts | 12° |
| 2026-05-04 15:04 | 38.20399 | -7.66178 | 30459 ft | 468 kts | 12° |
| 2026-05-04 15:05 | 38.23491 | -7.64862 | 30738 ft | 470 kts | 12° |
| 2026-05-04 15:05 | 38.26604 | -7.63536 | 31022 ft | 472 kts | 12° |
| 2026-05-04 15:05 | 38.29725 | -7.62206 | 31345 ft | 473 kts | 12° |
| 2026-05-04 15:05 | 38.32839 | -7.60876 | 31731 ft | 472 kts | 12° |
| 2026-05-04 15:06 | 38.35949 | -7.59546 | 32114 ft | 471 kts | 12° |
| 2026-05-04 15:06 | 38.39049 | -7.58220 | 32504 ft | 470 kts | 12° |
| 2026-05-04 15:06 | 38.42149 | -7.56894 | 32875 ft | 469 kts | 12° |
| 2026-05-04 15:07 | 38.48334 | -7.54244 | 33592 ft | 468 kts | 12° |
| 2026-05-04 15:07 | 38.51425 | -7.52919 | 33932 ft | 467 kts | 12° |
| 2026-05-04 15:07 | 38.54507 | -7.51596 | 34212 ft | 467 kts | 12° |
| 2026-05-04 15:07 | 38.57590 | -7.50271 | 34467 ft | 467 kts | 12° |
| 2026-05-04 15:08 | 38.60674 | -7.48946 | 34707 ft | 468 kts | 12° |
| 2026-05-04 15:08 | 38.63762 | -7.47617 | 34934 ft | 468 kts | 12° |
| 2026-05-04 15:08 | 38.66850 | -7.46286 | 35162 ft | 469 kts | 12° |
| 2026-05-04 15:08 | 38.69942 | -7.44953 | 35378 ft | 469 kts | 12° |
| 2026-05-04 15:09 | 38.73004 | -7.43631 | 35600 ft | 469 kts | 12° |
| 2026-05-04 15:09 | 38.76105 | -7.42292 | 35820 ft | 470 kts | 12° |
| 2026-05-04 15:09 | 38.79205 | -7.40951 | 36020 ft | 470 kts | 12° |
| 2026-05-04 15:10 | 38.85407 | -7.38265 | 36430 ft | 470 kts | 12° |
| 2026-05-04 15:10 | 38.88511 | -7.36919 | 36611 ft | 471 kts | 12° |
| 2026-05-04 15:10 | 38.94726 | -7.34220 | 36980 ft | 472 kts | 12° |
| 2026-05-04 15:11 | 38.97837 | -7.32867 | 37163 ft | 472 kts | 12° |
| 2026-05-04 15:11 | 39.00947 | -7.31514 | 37337 ft | 472 kts | 12° |
| 2026-05-04 15:11 | 39.04063 | -7.30156 | 37500 ft | 473 kts | 12° |
| 2026-05-04 15:11 | 39.07187 | -7.28793 | 37664 ft | 473 kts | 12° |
| 2026-05-04 15:12 | 39.10304 | -7.27433 | 37822 ft | 473 kts | 12° |
| 2026-05-04 15:12 | 39.13421 | -7.26071 | 37966 ft | 474 kts | 12° |
| 2026-05-04 15:12 | 39.16546 | -7.24705 | 37997 ft | 474 kts | 12° |
| 2026-05-04 15:13 | 39.22735 | -7.21755 | 37986 ft | 478 kts | 19° |
| 2026-05-04 15:13 | 39.28692 | -7.17851 | 37985 ft | 481 kts | 21° |
| 2026-05-04 15:14 | 39.34609 | -7.13953 | 37996 ft | 480 kts | 21° |
| 2026-05-04 15:14 | 39.40552 | -7.10021 | 37986 ft | 480 kts | 21° |
| 2026-05-04 15:15 | 39.46498 | -7.06071 | 37988 ft | 480 kts | 21° |
| 2026-05-04 15:15 | 39.52445 | -7.02110 | 37981 ft | 480 kts | 21° |
| 2026-05-04 15:16 | 39.61366 | -6.96153 | 37980 ft | 481 kts | 22° |
| 2026-05-04 15:17 | 39.70255 | -6.90202 | 37967 ft | 481 kts | 22° |
| 2026-05-04 15:17 | 39.79171 | -6.84215 | 37970 ft | 481 kts | 22° |
| 2026-05-04 15:18 | 39.85130 | -6.80203 | 37969 ft | 482 kts | 22° |
| 2026-05-04 15:19 | 39.94051 | -6.74182 | 37964 ft | 482 kts | 22° |
| 2026-05-04 15:19 | 40.02982 | -6.68137 | 37966 ft | 481 kts | 22° |
| 2026-05-04 15:20 | 40.08922 | -6.64107 | 37969 ft | 481 kts | 22° |
| 2026-05-04 15:20 | 40.14858 | -6.60072 | 37945 ft | 481 kts | 22° |
| 2026-05-04 15:21 | 40.20787 | -6.56032 | 37947 ft | 480 kts | 22° |
| 2026-05-04 15:22 | 40.29634 | -6.49991 | 37947 ft | 480 kts | 22° |
| 2026-05-04 15:22 | 40.38508 | -6.43913 | 37944 ft | 480 kts | 22° |
| 2026-05-04 15:23 | 40.44428 | -6.39848 | 37945 ft | 480 kts | 22° |
| 2026-05-04 15:23 | 40.50353 | -6.35772 | 37941 ft | 480 kts | 22° |
| 2026-05-04 15:24 | 40.62209 | -6.27594 | 37955 ft | 481 kts | 22° |
| 2026-05-04 15:25 | 40.68094 | -6.23532 | 37958 ft | 481 kts | 22° |
| 2026-05-04 15:26 | 40.76986 | -6.17380 | 37964 ft | 481 kts | 22° |
| 2026-05-04 15:26 | 40.85881 | -6.11204 | 37962 ft | 481 kts | 23° |
| 2026-05-04 15:27 | 40.93778 | -6.05706 | 37962 ft | 481 kts | 23° |
| 2026-05-04 15:28 | 41.02667 | -5.99500 | 37958 ft | 481 kts | 23° |
| 2026-05-04 15:29 | 41.11557 | -5.93274 | 37960 ft | 481 kts | 23° |
| 2026-05-04 15:30 | 41.32251 | -5.78706 | 37956 ft | 481 kts | 23° |
| 2026-05-04 15:31 | 41.41083 | -5.72456 | 37945 ft | 481 kts | 24° |
| 2026-05-04 15:32 | 41.55971 | -5.62315 | 37950 ft | 477 kts | 18° |
| 2026-05-04 15:34 | 41.71261 | -5.53696 | 37958 ft | 477 kts | 19° |
| 2026-05-04 15:34 | 41.80380 | -5.48531 | 37954 ft | 476 kts | 19° |
| 2026-05-04 15:35 | 41.89522 | -5.43338 | 37953 ft | 475 kts | 19° |
| 2026-05-04 15:36 | 41.98660 | -5.38131 | 37960 ft | 475 kts | 19° |
| 2026-05-04 15:36 | 42.04754 | -5.34650 | 37950 ft | 475 kts | 19° |
| 2026-05-04 15:37 | 42.10838 | -5.31167 | 37957 ft | 475 kts | 19° |
| 2026-05-04 15:37 | 42.16923 | -5.27676 | 37957 ft | 475 kts | 19° |
| 2026-05-04 15:38 | 42.22978 | -5.24195 | 37956 ft | 476 kts | 19° |
| 2026-05-04 15:38 | 42.29067 | -5.20687 | 37957 ft | 476 kts | 19° |
| 2026-05-04 15:39 | 42.35164 | -5.17167 | 37956 ft | 476 kts | 20° |
| 2026-05-04 15:40 | 42.44309 | -5.11873 | 37957 ft | 477 kts | 20° |
| 2026-05-04 15:40 | 42.50371 | -5.08355 | 37960 ft | 477 kts | 20° |
| 2026-05-04 15:41 | 42.56471 | -5.04807 | 37966 ft | 477 kts | 20° |
| 2026-05-04 15:41 | 42.62573 | -5.01250 | 37967 ft | 477 kts | 20° |
| 2026-05-04 15:42 | 42.68682 | -4.97683 | 37976 ft | 478 kts | 20° |
| 2026-05-04 15:42 | 42.74785 | -4.94109 | 37971 ft | 476 kts | 20° |
| 2026-05-04 15:43 | 42.80856 | -4.90546 | 37978 ft | 476 kts | 20° |
| 2026-05-04 15:43 | 42.86946 | -4.86966 | 37984 ft | 476 kts | 20° |
| 2026-05-04 15:44 | 42.93029 | -4.83383 | 37994 ft | 476 kts | 20° |
| 2026-05-04 15:44 | 42.99112 | -4.79791 | 38001 ft | 476 kts | 20° |
| 2026-05-04 15:45 | 43.05148 | -4.76220 | 38007 ft | 476 kts | 21° |
| 2026-05-04 15:45 | 43.11213 | -4.72622 | 38007 ft | 475 kts | 21° |
| 2026-05-04 15:46 | 43.17275 | -4.69019 | 38005 ft | 475 kts | 21° |
| 2026-05-04 15:46 | 43.23331 | -4.65412 | 38009 ft | 475 kts | 21° |
| 2026-05-04 15:47 | 43.29395 | -4.61792 | 38016 ft | 475 kts | 21° |
| 2026-05-04 15:47 | 43.35453 | -4.58168 | 38012 ft | 475 kts | 21° |
| 2026-05-04 15:48 | 43.41513 | -4.54535 | 38003 ft | 475 kts | 21° |
| 2026-05-04 15:48 | 43.50589 | -4.49080 | 38001 ft | 474 kts | 21° |
| 2026-05-04 15:49 | 43.56636 | -4.45433 | 37998 ft | 474 kts | 21° |
| 2026-05-04 15:49 | 43.62688 | -4.41778 | 37990 ft | 475 kts | 21° |
| 2026-05-04 15:50 | 43.68739 | -4.38114 | 38007 ft | 475 kts | 21° |
| 2026-05-04 15:50 | 43.74761 | -4.34459 | 37998 ft | 476 kts | 22° |
| 2026-05-04 15:51 | 43.80826 | -4.30771 | 37995 ft | 476 kts | 22° |
| 2026-05-04 15:51 | 43.86895 | -4.27071 | 38003 ft | 477 kts | 22° |
| 2026-05-04 15:52 | 43.92966 | -4.23362 | 38000 ft | 477 kts | 22° |
| 2026-05-04 15:52 | 43.99047 | -4.19639 | 38003 ft | 477 kts | 22° |
| 2026-05-04 15:53 | 44.05126 | -4.15909 | 38002 ft | 478 kts | 22° |
| 2026-05-04 15:53 | 44.11200 | -4.12173 | 37995 ft | 476 kts | 22° |
| 2026-05-04 15:54 | 44.17250 | -4.08443 | 37989 ft | 475 kts | 22° |
| 2026-05-04 15:54 | 44.23305 | -4.04703 | 37982 ft | 475 kts | 22° |
| 2026-05-04 15:55 | 44.29343 | -4.01112 | 37987 ft | 474 kts | 18° |
| 2026-05-04 15:55 | 44.35755 | -3.98807 | 37991 ft | 472 kts | 7° |
| 2026-05-04 15:56 | 44.42279 | -3.97964 | 37988 ft | 471 kts | 1° |
| 2026-05-04 15:56 | 44.48777 | -3.97352 | 37990 ft | 471 kts | 2° |
| 2026-05-04 15:57 | 44.55320 | -3.96745 | 37994 ft | 471 kts | 2° |
| 2026-05-04 15:57 | 44.61869 | -3.96151 | 37998 ft | 472 kts | 2° |
| 2026-05-04 15:58 | 44.68430 | -3.95558 | 37998 ft | 472 kts | 2° |
| 2026-05-04 15:58 | 44.74980 | -3.94965 | 38000 ft | 472 kts | 2° |
| 2026-05-04 15:59 | 44.81539 | -3.94369 | 37998 ft | 472 kts | 2° |
| 2026-05-04 15:59 | 44.88086 | -3.93773 | 37995 ft | 472 kts | 2° |
| 2026-05-04 16:00 | 44.94635 | -3.93175 | 37994 ft | 471 kts | 2° |
| 2026-05-04 16:00 | 45.01179 | -3.92577 | 37991 ft | 471 kts | 2° |
| 2026-05-04 16:01 | 45.07718 | -3.91977 | 37986 ft | 471 kts | 2° |
| 2026-05-04 16:01 | 45.14214 | -3.91380 | 37982 ft | 470 kts | 2° |
| 2026-05-04 16:02 | 45.20741 | -3.90780 | 37979 ft | 470 kts | 2° |
| 2026-05-04 16:03 | 45.30535 | -3.89875 | 37975 ft | 470 kts | 2° |
| 2026-05-04 16:03 | 45.37056 | -3.89270 | 37979 ft | 470 kts | 2° |
| 2026-05-04 16:04 | 45.43593 | -3.88664 | 37981 ft | 470 kts | 2° |
| 2026-05-04 16:04 | 45.53389 | -3.87752 | 37979 ft | 470 kts | 2° |
| 2026-05-04 16:05 | 45.59874 | -3.87146 | 37982 ft | 471 kts | 2° |
| 2026-05-04 16:06 | 45.69698 | -3.86226 | 37987 ft | 472 kts | 2° |
| 2026-05-04 16:07 | 45.82800 | -3.84993 | 37982 ft | 471 kts | 3° |
| 2026-05-04 16:08 | 45.95888 | -3.83756 | 37977 ft | 472 kts | 3° |
| 2026-05-04 16:09 | 46.12245 | -3.82202 | 37977 ft | 473 kts | 3° |
| 2026-05-04 16:10 | 46.25385 | -3.80946 | 37978 ft | 473 kts | 3° |
| 2026-05-04 16:11 | 46.38532 | -3.79684 | 37977 ft | 473 kts | 3° |
| 2026-05-04 16:12 | 46.58257 | -3.77779 | 37980 ft | 473 kts | 3° |
| 2026-05-04 16:13 | 46.71397 | -3.76503 | 37980 ft | 473 kts | 3° |
| 2026-05-04 16:14 | 46.84479 | -3.75226 | 37981 ft | 472 kts | 3° |
| 2026-05-04 16:16 | 46.99756 | -3.73727 | 37976 ft | 471 kts | 3° |
| 2026-05-04 16:17 | 47.16100 | -3.72114 | 37973 ft | 470 kts | 3° |
| 2026-05-04 16:18 | 47.29163 | -3.70817 | 37963 ft | 470 kts | 3° |
| 2026-05-04 16:19 | 47.45447 | -3.69192 | 37975 ft | 470 kts | 3° |
| 2026-05-04 16:20 | 47.61793 | -3.67550 | 37978 ft | 471 kts | 3° |
| 2026-05-04 16:22 | 47.78163 | -3.65896 | 37979 ft | 472 kts | 3° |
| 2026-05-04 16:23 | 47.97789 | -3.63898 | 37994 ft | 472 kts | 3° |
| 2026-05-04 16:25 | 48.17422 | -3.61885 | 37980 ft | 470 kts | 3° |
| 2026-05-04 16:26 | 48.30381 | -3.59492 | 37980 ft | 470 kts | 20° |
| 2026-05-04 16:26 | 48.38428 | -3.51436 | 37978 ft | 468 kts | 50° |
| 2026-05-04 16:28 | 48.49214 | -3.32978 | 37980 ft | 469 kts | 50° |
| 2026-05-04 16:29 | 48.64237 | -3.07031 | 37989 ft | 469 kts | 50° |
| 2026-05-04 16:30 | 48.70119 | -2.95350 | 37988 ft | 466 kts | 63° |
| 2026-05-04 16:31 | 48.72569 | -2.86320 | 37983 ft | 463 kts | 76° |
| 2026-05-04 16:32 | 48.78289 | -2.58463 | 37978 ft | 466 kts | 58° |
| 2026-05-04 16:33 | 48.82625 | -2.51156 | 37969 ft | 469 kts | 38° |
| 2026-05-04 16:33 | 48.87809 | -2.45129 | 37968 ft | 470 kts | 38° |
| 2026-05-04 16:34 | 48.95586 | -2.36013 | 37978 ft | 471 kts | 38° |
| 2026-05-04 16:35 | 49.11088 | -2.17725 | 37993 ft | 462 kts | 38° |
| 2026-05-04 16:36 | 49.18734 | -2.08649 | 37994 ft | 465 kts | 39° |
| 2026-05-04 16:37 | 49.26888 | -2.00617 | 37989 ft | 466 kts | 29° |
| 2026-05-04 16:38 | 49.38224 | -1.90965 | 37992 ft | 466 kts | 30° |
| 2026-05-04 16:39 | 49.52371 | -1.78878 | 37998 ft | 467 kts | 30° |
| 2026-05-04 16:40 | 49.57998 | -1.74054 | 37207 ft | 462 kts | 29° |
| 2026-05-04 16:40 | 49.63954 | -1.70250 | 36002 ft | 464 kts | 20° |
| 2026-05-04 16:41 | 49.70045 | -1.66896 | 34834 ft | 465 kts | 20° |
| 2026-05-04 16:41 | 49.79196 | -1.61819 | 32993 ft | 468 kts | 21° |
| 2026-05-04 16:42 | 49.88486 | -1.56659 | 31110 ft | 476 kts | 21° |
| 2026-05-04 16:43 | 49.94741 | -1.53173 | 29888 ft | 477 kts | 22° |
| 2026-05-04 16:43 | 50.00904 | -1.49732 | 28512 ft | 463 kts | 21° |
| 2026-05-04 16:43 | 50.03951 | -1.48176 | 27862 ft | 458 kts | 19° |
| 2026-05-04 16:44 | 50.15832 | -1.42498 | 25414 ft | 438 kts | 19° |
| 2026-05-04 16:45 | 50.21618 | -1.39666 | 24445 ft | 431 kts | 19° |
| 2026-05-04 16:46 | 50.30071 | -1.35498 | 23104 ft | 420 kts | 19° |
| 2026-05-04 16:46 | 50.35583 | -1.32771 | 22119 ft | 410 kts | 19° |
| 2026-05-04 16:47 | 50.40982 | -1.30093 | 21172 ft | 404 kts | 19° |
| 2026-05-04 16:47 | 50.46286 | -1.27456 | 20250 ft | 396 kts | 18° |
| 2026-05-04 16:48 | 50.53343 | -1.21427 | 18933 ft | 383 kts | 41° |
| 2026-05-04 16:48 | 50.55380 | -1.18723 | 18504 ft | 381 kts | 41° |
| 2026-05-04 16:49 | 50.59422 | -1.13420 | 17561 ft | 375 kts | 40° |
| 2026-05-04 16:49 | 50.63404 | -1.08181 | 16615 ft | 371 kts | 40° |
| 2026-05-04 16:50 | 50.67088 | -1.02610 | 15902 ft | 366 kts | 52° |
| 2026-05-04 16:50 | 50.69883 | -0.97183 | 15332 ft | 364 kts | 51° |
| 2026-05-04 16:51 | 50.73035 | -0.91119 | 14688 ft | 349 kts | 51° |
| 2026-05-04 16:51 | 50.74556 | -0.88187 | 14379 ft | 341 kts | 51° |
| 2026-05-04 16:51 | 50.77494 | -0.82505 | 13754 ft | 327 kts | 51° |
| 2026-05-04 16:52 | 50.80270 | -0.76994 | 13138 ft | 312 kts | 58° |
| 2026-05-04 16:52 | 50.81198 | -0.73983 | 13041 ft | 300 kts | 72° |
| 2026-05-04 16:53 | 50.82034 | -0.67493 | 12990 ft | 304 kts | 80° |
| 2026-05-04 16:53 | 50.83185 | -0.57670 | 12633 ft | 299 kts | 80° |
| 2026-05-04 16:54 | 50.83560 | -0.54445 | 12069 ft | 298 kts | 80° |
| 2026-05-04 16:55 | 50.85014 | -0.41825 | 10311 ft | 289 kts | 80° |
| 2026-05-04 16:55 | 50.85734 | -0.35523 | 10114 ft | 290 kts | 80° |
| 2026-05-04 16:56 | 50.86442 | -0.29301 | 9993 ft | 288 kts | 80° |
| 2026-05-04 16:56 | 50.87443 | -0.20466 | 9556 ft | 253 kts | 80° |
| 2026-05-04 16:57 | 50.87749 | -0.17739 | 9064 ft | 251 kts | 80° |
| 2026-05-04 16:57 | 50.88353 | -0.12352 | 8252 ft | 241 kts | 80° |
| 2026-05-04 16:58 | 50.90470 | -0.05277 | 7993 ft | 247 kts | 25° |
| 2026-05-04 16:58 | 50.90989 | -0.04946 | 7992 ft | 248 kts | 15° |